sensor_id;sensor_type;location;lat;lon;timestamp;temperature;humidity
1123;DHT22;548;48.778;9.252;2022-09-14T04:52:15;18.60;99.90
1123;DHT22;548;48.778;9.252;2022-09-14T04:54:41;18.60;99.90
1123;DHT22;548;48.778;9.252;2022-09-14T04:59:35;18.60;99.90
1123;DHT22;548;48.778;9.252;2022-09-14T05:02:02;18.50;99.90
1123;DHT22;548;48.778;9.252;2022-09-14T05:04:28;18.60;99.90
1123;DHT22;548;48.778;9.252;2022-09-14T05:06:55;18.60;99.90
1123;DHT22;548;48.778;9.252;2022-09-14T05:09:23;18.80;99.90
1123;DHT22;548;48.778;9.252;2022-09-14T05:11:50;18.60;99.90
1123;DHT22;548;48.778;9.252;2022-09-14T05:14:17;18.70;99.90
1123;DHT22;548;48.778;9.252;2022-09-14T05:16:44;18.60;99.90
1123;DHT22;548;48.778;9.252;2022-09-14T05:19:13;18.60;99.90
1123;DHT22;548;48.778;9.252;2022-09-14T05:21:43;22.20;99.90
1123;DHT22;548;48.778;9.252;2022-09-14T05:24:11;18.70;99.90
1123;DHT22;548;48.778;9.252;2022-09-14T05:26:41;18.80;99.90
1123;DHT22;548;48.778;9.252;2022-09-14T05:29:11;18.80;99.90
1123;DHT22;548;48.778;9.252;2022-09-14T05:31:38;18.90;99.90
1123;DHT22;548;48.778;9.252;2022-09-14T05:34:04;18.90;99.90
1123;DHT22;548;48.778;9.252;2022-09-14T05:36:31;19.10;99.90
1123;DHT22;548;48.778;9.252;2022-09-14T05:38:58;19.20;99.90
1123;DHT22;548;48.778;9.252;2022-09-14T05:41:25;19.30;99.90
1123;DHT22;548;48.778;9.252;2022-09-14T05:43:53;19.30;99.90
1123;DHT22;548;48.778;9.252;2022-09-14T05:46:20;19.40;99.90
1123;DHT22;548;48.778;9.252;2022-09-14T05:48:47;19.50;99.90
1123;DHT22;548;48.778;9.252;2022-09-14T05:51:17;19.60;99.90
1123;DHT22;548;48.778;9.252;2022-09-14T05:53:46;19.70;99.90
1123;DHT22;548;48.778;9.252;2022-09-14T05:56:14;19.80;99.90
1123;DHT22;548;48.778;9.252;2022-09-14T05:58:41;19.80;99.90
1123;DHT22;548;48.778;9.252;2022-09-14T06:01:11;20.00;99.90
1123;DHT22;548;48.778;9.252;2022-09-14T06:06:07;20.10;99.90
1123;DHT22;548;48.778;9.252;2022-09-14T06:08:34;20.20;99.90
1123;DHT22;548;48.778;9.252;2022-09-14T06:11:05;20.10;99.90
1123;DHT22;548;48.778;9.252;2022-09-14T06:13:56;20.30;99.90
1123;DHT22;548;48.778;9.252;2022-09-14T06:16:25;20.40;99.90
1123;DHT22;548;48.778;9.252;2022-09-14T06:18:54;20.50;99.90
1123;DHT22;548;48.778;9.252;2022-09-14T06:21:21;20.80;99.90
1123;DHT22;548;48.778;9.252;2022-09-14T06:23:49;20.80;99.90
1123;DHT22;548;48.778;9.252;2022-09-14T06:26:16;20.90;99.90
1123;DHT22;548;48.778;9.252;2022-09-14T06:28:43;20.90;99.90
1123;DHT22;548;48.778;9.252;2022-09-14T06:31:11;20.90;99.90
1123;DHT22;548;48.778;9.252;2022-09-14T06:33:43;20.80;99.90
1123;DHT22;548;48.778;9.252;2022-09-14T06:36:12;20.90;99.90
1123;DHT22;548;48.778;9.252;2022-09-14T06:38:39;21.00;99.90
1123;DHT22;548;48.778;9.252;2022-09-14T06:41:08;21.10;99.90
1123;DHT22;548;48.778;9.252;2022-09-14T06:43:38;21.20;99.90
1123;DHT22;548;48.778;9.252;2022-09-14T06:46:06;21.30;99.90
1123;DHT22;548;48.778;9.252;2022-09-14T06:48:35;21.30;99.90
1123;DHT22;548;48.778;9.252;2022-09-14T06:51:12;21.30;99.90
1123;DHT22;548;48.778;9.252;2022-09-14T06:53:39;21.30;99.90
1123;DHT22;548;48.778;9.252;2022-09-14T06:56:06;21.40;99.90
1123;DHT22;548;48.778;9.252;2022-09-14T06:58:33;21.30;99.90
1123;DHT22;548;48.778;9.252;2022-09-14T07:01:01;21.30;99.90
1123;DHT22;548;48.778;9.252;2022-09-14T07:03:29;21.40;99.90
1123;DHT22;548;48.778;9.252;2022-09-14T07:06:00;21.20;99.90
1123;DHT22;548;48.778;9.252;2022-09-14T07:08:29;21.30;99.90
1123;DHT22;548;48.778;9.252;2022-09-14T07:10:56;21.30;99.90
1123;DHT22;548;48.778;9.252;2022-09-14T07:13:23;21.40;99.90
1123;DHT22;548;48.778;9.252;2022-09-14T07:15:50;21.50;99.90
1123;DHT22;548;48.778;9.252;2022-09-14T07:18:17;21.30;99.90
1123;DHT22;548;48.778;9.252;2022-09-14T07:20:43;21.90;99.90
1123;DHT22;548;48.778;9.252;2022-09-14T07:23:10;22.10;99.90
1123;DHT22;548;48.778;9.252;2022-09-14T07:25:39;22.40;99.90
1123;DHT22;548;48.778;9.252;2022-09-14T07:28:06;22.90;99.90
1123;DHT22;548;48.778;9.252;2022-09-14T07:30:34;23.10;99.90
1123;DHT22;548;48.778;9.252;2022-09-14T07:33:02;23.10;99.90
1123;DHT22;548;48.778;9.252;2022-09-14T07:35:28;23.10;99.90
1123;DHT22;548;48.778;9.252;2022-09-14T07:37:55;23.10;99.90
1123;DHT22;548;48.778;9.252;2022-09-14T07:40:22;23.20;99.90
1123;DHT22;548;48.778;9.252;2022-09-14T07:42:51;23.40;99.90
1123;DHT22;548;48.778;9.252;2022-09-14T07:45:18;23.80;99.90
1123;DHT22;548;48.778;9.252;2022-09-14T07:47:45;24.30;99.90
1123;DHT22;548;48.778;9.252;2022-09-14T07:50:11;24.60;99.90
1123;DHT22;548;48.778;9.252;2022-09-14T07:55:06;25.30;99.90
1123;DHT22;548;48.778;9.252;2022-09-14T07:57:33;25.70;99.90
1123;DHT22;548;48.778;9.252;2022-09-14T08:00:02;26.10;99.90
1123;DHT22;548;48.778;9.252;2022-09-14T08:02:29;27.00;99.90
1123;DHT22;548;48.778;9.252;2022-09-14T08:04:56;26.80;99.90
1123;DHT22;548;48.778;9.252;2022-09-14T08:07:24;26.80;99.90
1123;DHT22;548;48.778;9.252;2022-09-14T08:09:51;27.10;99.90
1123;DHT22;548;48.778;9.252;2022-09-14T08:12:18;27.20;99.90
1123;DHT22;548;48.778;9.252;2022-09-14T08:14:45;27.20;99.90
1123;DHT22;548;48.778;9.252;2022-09-14T08:17:13;27.20;99.90
1123;DHT22;548;48.778;9.252;2022-09-14T08:19:39;27.00;99.90
1123;DHT22;548;48.778;9.252;2022-09-14T08:22:06;27.10;99.90
1123;DHT22;548;48.778;9.252;2022-09-14T08:24:33;27.20;99.90
1123;DHT22;548;48.778;9.252;2022-09-14T08:26:59;27.20;99.90
1123;DHT22;548;48.778;9.252;2022-09-14T08:29:26;27.20;99.90
1123;DHT22;548;48.778;9.252;2022-09-14T08:34:21;27.20;99.90
1123;DHT22;548;48.778;9.252;2022-09-14T08:36:48;27.30;99.90
1123;DHT22;548;48.778;9.252;2022-09-14T08:39:15;27.50;99.90
1123;DHT22;548;48.778;9.252;2022-09-14T08:41:50;27.80;99.90
1123;DHT22;548;48.778;9.252;2022-09-14T08:44:20;27.40;99.90
1123;DHT22;548;48.778;9.252;2022-09-14T08:46:50;27.40;99.90
1123;DHT22;548;48.778;9.252;2022-09-14T08:49:27;27.20;99.90
1123;DHT22;548;48.778;9.252;2022-09-14T08:51:56;27.00;99.90
1123;DHT22;548;48.778;9.252;2022-09-14T08:54:23;26.80;99.90
1123;DHT22;548;48.778;9.252;2022-09-14T08:56:55;27.20;99.90
1123;DHT22;548;48.778;9.252;2022-09-14T08:59:40;28.10;99.90
1123;DHT22;548;48.778;9.252;2022-09-14T09:02:26;28.50;99.90
1123;DHT22;548;48.778;9.252;2022-09-14T09:04:58;29.00;99.90
1123;DHT22;548;48.778;9.252;2022-09-14T09:07:35;29.50;99.90
1123;DHT22;548;48.778;9.252;2022-09-14T09:10:04;29.60;99.90
1123;DHT22;548;48.778;9.252;2022-09-14T09:12:35;30.30;99.90
1123;DHT22;548;48.778;9.252;2022-09-14T09:15:13;30.80;99.70
1123;DHT22;548;48.778;9.252;2022-09-14T09:17:43;31.30;99.60
1123;DHT22;548;48.778;9.252;2022-09-14T09:20:15;31.70;98.50
1123;DHT22;548;48.778;9.252;2022-09-14T09:22:46;32.00;97.70
1123;DHT22;548;48.778;9.252;2022-09-14T09:25:19;32.70;95.90
1123;DHT22;548;48.778;9.252;2022-09-14T09:27:48;33.40;94.20
1123;DHT22;548;48.778;9.252;2022-09-14T09:30:15;33.20;93.60
1123;DHT22;548;48.778;9.252;2022-09-14T09:32:42;33.60;93.40
1123;DHT22;548;48.778;9.252;2022-09-14T09:35:14;33.50;92.30
1123;DHT22;548;48.778;9.252;2022-09-14T09:37:42;33.50;92.40
1123;DHT22;548;48.778;9.252;2022-09-14T09:40:14;33.30;92.80
1123;DHT22;548;48.778;9.252;2022-09-14T09:43:06;33.20;93.30
1123;DHT22;548;48.778;9.252;2022-09-14T09:45:49;32.60;92.80
1123;DHT22;548;48.778;9.252;2022-09-14T09:48:18;31.00;99.90
1123;DHT22;548;48.778;9.252;2022-09-14T09:50:54;30.90;95.60
1123;DHT22;548;48.778;9.252;2022-09-14T09:53:23;31.20;95.40
1123;DHT22;548;48.778;9.252;2022-09-14T09:55:50;31.10;95.60
1123;DHT22;548;48.778;9.252;2022-09-14T09:58:28;31.60;94.70
1123;DHT22;548;48.778;9.252;2022-09-14T10:00:57;32.50;93.50
1123;DHT22;548;48.778;9.252;2022-09-14T10:03:28;33.70;91.60
1123;DHT22;548;48.778;9.252;2022-09-14T10:06:06;34.50;90.50
1123;DHT22;548;48.778;9.252;2022-09-14T10:08:40;35.00;89.70
1123;DHT22;548;48.778;9.252;2022-09-14T10:11:28;34.50;91.10
1123;DHT22;548;48.778;9.252;2022-09-14T10:16:24;32.50;91.50
1123;DHT22;548;48.778;9.252;2022-09-14T10:18:54;33.50;93.20
1123;DHT22;548;48.778;9.252;2022-09-14T10:21:23;33.80;92.50
1123;DHT22;548;48.778;9.252;2022-09-14T10:24:02;33.70;90.90
1123;DHT22;548;48.778;9.252;2022-09-14T10:26:35;33.70;90.70
1123;DHT22;548;48.778;9.252;2022-09-14T10:29:31;32.40;88.90
1123;DHT22;548;48.778;9.252;2022-09-14T10:32:06;33.80;88.20
1123;DHT22;548;48.778;9.252;2022-09-14T10:34:37;34.20;91.10
1123;DHT22;548;48.778;9.252;2022-09-14T10:37:16;33.60;91.90
1123;DHT22;548;48.778;9.252;2022-09-14T10:39:49;33.20;91.30
1123;DHT22;548;48.778;9.252;2022-09-14T10:42:25;33.40;91.50
1123;DHT22;548;48.778;9.252;2022-09-14T10:45:12;32.90;91.60
1123;DHT22;548;48.778;9.252;2022-09-14T10:47:56;32.80;90.20
1123;DHT22;548;48.778;9.252;2022-09-14T10:50:37;33.00;91.30
1123;DHT22;548;48.778;9.252;2022-09-14T10:53:18;33.10;90.40
1123;DHT22;548;48.778;9.252;2022-09-14T10:55:52;32.50;91.60
1123;DHT22;548;48.778;9.252;2022-09-14T10:58:38;31.60;99.90
1123;DHT22;548;48.778;9.252;2022-09-14T11:01:21;32.20;93.10
1123;DHT22;548;48.778;9.252;2022-09-14T11:04:00;31.50;92.80
1123;DHT22;548;48.778;9.252;2022-09-14T11:06:40;31.90;93.00
1123;DHT22;548;48.778;9.252;2022-09-14T11:09:16;31.80;92.30
1123;DHT22;548;48.778;9.252;2022-09-14T11:11:54;31.50;93.20
1123;DHT22;548;48.778;9.252;2022-09-14T11:14:35;31.60;92.50
1123;DHT22;548;48.778;9.252;2022-09-14T11:17:26;32.40;92.60
1123;DHT22;548;48.778;9.252;2022-09-14T11:20:03;33.00;90.00
1123;DHT22;548;48.778;9.252;2022-09-14T11:22:39;34.30;86.70
1123;DHT22;548;48.778;9.252;2022-09-14T11:25:13;35.70;84.80
1123;DHT22;548;48.778;9.252;2022-09-14T11:27:43;36.10;90.60
1123;DHT22;548;48.778;9.252;2022-09-14T11:30:14;36.50;89.10
1123;DHT22;548;48.778;9.252;2022-09-14T11:32:44;36.70;89.90
1123;DHT22;548;48.778;9.252;2022-09-14T11:35:17;37.40;85.40
1123;DHT22;548;48.778;9.252;2022-09-14T11:37:48;35.40;88.20
1123;DHT22;548;48.778;9.252;2022-09-14T11:40:20;36.40;89.30
1123;DHT22;548;48.778;9.252;2022-09-14T11:42:54;33.30;90.10
1123;DHT22;548;48.778;9.252;2022-09-14T11:45:26;33.50;91.80
1123;DHT22;548;48.778;9.252;2022-09-14T11:48:05;33.70;91.10
1123;DHT22;548;48.778;9.252;2022-09-14T11:50:35;33.80;90.40
1123;DHT22;548;48.778;9.252;2022-09-14T11:53:09;34.10;90.50
1123;DHT22;548;48.778;9.252;2022-09-14T11:55:42;33.90;90.40
1123;DHT22;548;48.778;9.252;2022-09-14T11:58:16;33.70;89.00
1123;DHT22;548;48.778;9.252;2022-09-14T12:06:51;31.70;92.10
1123;DHT22;548;48.778;9.252;2022-09-14T12:09:50;32.00;92.70
1123;DHT22;548;48.778;9.252;2022-09-14T12:12:37;30.90;93.40
1123;DHT22;548;48.778;9.252;2022-09-14T12:15:32;30.50;91.70
1123;DHT22;548;48.778;9.252;2022-09-14T12:18:20;30.60;91.40
1123;DHT22;548;48.778;9.252;2022-09-14T12:20:48;31.10;94.70
1123;DHT22;548;48.778;9.252;2022-09-14T12:23:29;30.70;95.10
1123;DHT22;548;48.778;9.252;2022-09-14T12:26:12;30.30;94.20
1123;DHT22;548;48.778;9.252;2022-09-14T12:28:45;30.50;96.50
1123;DHT22;548;48.778;9.252;2022-09-14T12:31:38;29.90;96.80
1123;DHT22;548;48.778;9.252;2022-09-14T12:34:24;29.70;96.60
1123;DHT22;548;48.778;9.252;2022-09-14T12:36:59;29.60;97.60
1123;DHT22;548;48.778;9.252;2022-09-14T12:39:27;29.10;98.80
1123;DHT22;548;48.778;9.252;2022-09-14T12:42:24;28.70;99.90
1123;DHT22;548;48.778;9.252;2022-09-14T12:44:53;28.40;99.90
1123;DHT22;548;48.778;9.252;2022-09-14T12:50:25;26.00;99.90
1123;DHT22;548;48.778;9.252;2022-09-14T12:53:16;26.50;99.90
1123;DHT22;548;48.778;9.252;2022-09-14T12:56:01;25.40;99.90
1123;DHT22;548;48.778;9.252;2022-09-14T13:01:34;24.30;99.90
1123;DHT22;548;48.778;9.252;2022-09-14T13:04:03;23.60;99.90
1123;DHT22;548;48.778;9.252;2022-09-14T13:06:38;23.20;99.90
1123;DHT22;548;48.778;9.252;2022-09-14T13:09:18;22.80;99.90
1123;DHT22;548;48.778;9.252;2022-09-14T13:11:47;22.60;99.90
1123;DHT22;548;48.778;9.252;2022-09-14T13:14:17;22.90;99.90
1123;DHT22;548;48.778;9.252;2022-09-14T13:16:47;22.20;99.90
1123;DHT22;548;48.778;9.252;2022-09-14T13:19:20;22.40;99.90
1123;DHT22;548;48.778;9.252;2022-09-14T13:21:49;22.00;99.90
1123;DHT22;548;48.778;9.252;2022-09-14T13:24:23;21.90;99.90
1123;DHT22;548;48.778;9.252;2022-09-14T13:26:51;21.80;99.90
1123;DHT22;548;48.778;9.252;2022-09-14T13:29:19;21.90;99.90
1123;DHT22;548;48.778;9.252;2022-09-14T13:31:48;21.70;99.90
1123;DHT22;548;48.778;9.252;2022-09-14T13:34:19;21.70;99.90
1123;DHT22;548;48.778;9.252;2022-09-14T13:36:47;21.40;99.90
1123;DHT22;548;48.778;9.252;2022-09-14T13:39:22;21.40;99.90
1123;DHT22;548;48.778;9.252;2022-09-14T13:41:50;21.60;99.90
1123;DHT22;548;48.778;9.252;2022-09-14T13:44:17;21.60;99.90
1123;DHT22;548;48.778;9.252;2022-09-14T13:46:44;21.60;99.90
1123;DHT22;548;48.778;9.252;2022-09-14T13:49:12;21.90;99.90
1123;DHT22;548;48.778;9.252;2022-09-14T13:51:39;22.10;99.90
1123;DHT22;548;48.778;9.252;2022-09-14T13:54:19;21.80;99.90
1123;DHT22;548;48.778;9.252;2022-09-14T13:57:09;21.70;99.90
1123;DHT22;548;48.778;9.252;2022-09-14T14:00:15;21.70;99.90
1123;DHT22;548;48.778;9.252;2022-09-14T14:02:45;21.60;99.90
1123;DHT22;548;48.778;9.252;2022-09-14T14:05:27;21.60;99.90
1123;DHT22;548;48.778;9.252;2022-09-14T14:07:56;21.60;99.90
1123;DHT22;548;48.778;9.252;2022-09-14T14:10:26;21.60;99.90
1123;DHT22;548;48.778;9.252;2022-09-14T14:12:54;21.60;99.90
1123;DHT22;548;48.778;9.252;2022-09-14T14:15:37;21.60;99.90
1123;DHT22;548;48.778;9.252;2022-09-14T14:18:29;21.70;99.90
1123;DHT22;548;48.778;9.252;2022-09-14T14:21:15;21.80;99.90
1123;DHT22;548;48.778;9.252;2022-09-14T14:23:42;21.90;99.90
1123;DHT22;548;48.778;9.252;2022-09-14T14:26:12;22.10;99.90
1123;DHT22;548;48.778;9.252;2022-09-14T14:28:40;22.30;99.90
1123;DHT22;548;48.778;9.252;2022-09-14T14:31:12;22.50;99.90
1123;DHT22;548;48.778;9.252;2022-09-14T14:33:44;22.60;99.90
1123;DHT22;548;48.778;9.252;2022-09-14T14:36:13;22.70;99.90
1123;DHT22;548;48.778;9.252;2022-09-14T14:38:40;22.90;99.90
1123;DHT22;548;48.778;9.252;2022-09-14T14:41:12;22.50;99.90
1123;DHT22;548;48.778;9.252;2022-09-14T14:43:40;22.80;99.90
1123;DHT22;548;48.778;9.252;2022-09-14T14:46:07;22.40;99.90
1123;DHT22;548;48.778;9.252;2022-09-14T14:48:34;23.30;99.90
1123;DHT22;548;48.778;9.252;2022-09-14T14:51:00;22.70;99.90
1123;DHT22;548;48.778;9.252;2022-09-14T14:53:28;22.90;99.90
1123;DHT22;548;48.778;9.252;2022-09-14T14:55:55;22.90;99.90
1123;DHT22;548;48.778;9.252;2022-09-14T14:58:23;22.60;99.90
1123;DHT22;548;48.778;9.252;2022-09-14T15:00:50;21.90;99.90
1123;DHT22;548;48.778;9.252;2022-09-14T15:03:17;22.90;99.90
1123;DHT22;548;48.778;9.252;2022-09-14T15:05:45;22.20;99.90
1123;DHT22;548;48.778;9.252;2022-09-14T15:08:13;22.10;99.90
1123;DHT22;548;48.778;9.252;2022-09-14T15:10:41;21.80;99.90
1123;DHT22;548;48.778;9.252;2022-09-14T15:13:09;21.60;99.90
1123;DHT22;548;48.778;9.252;2022-09-14T15:15:38;21.30;99.90
1123;DHT22;548;48.778;9.252;2022-09-14T15:18:06;21.30;99.90
1123;DHT22;548;48.778;9.252;2022-09-14T15:20:32;21.20;99.90
1123;DHT22;548;48.778;9.252;2022-09-14T15:22:59;21.50;99.90
1123;DHT22;548;48.778;9.252;2022-09-14T15:25:26;20.90;99.90
1123;DHT22;548;48.778;9.252;2022-09-14T15:27:54;20.70;99.90
1123;DHT22;548;48.778;9.252;2022-09-14T15:30:20;20.80;99.90
1123;DHT22;548;48.778;9.252;2022-09-14T15:32:47;20.60;99.90
1123;DHT22;548;48.778;9.252;2022-09-14T15:35:14;20.50;99.90
1123;DHT22;548;48.778;9.252;2022-09-14T15:37:41;20.50;99.90
1123;DHT22;548;48.778;9.252;2022-09-14T15:40:09;20.70;99.90
1123;DHT22;548;48.778;9.252;2022-09-14T15:45:05;20.70;99.90
1123;DHT22;548;48.778;9.252;2022-09-14T15:47:33;20.80;99.90
1123;DHT22;548;48.778;9.252;2022-09-14T15:49:59;20.80;99.90
1123;DHT22;548;48.778;9.252;2022-09-14T15:52:26;21.40;99.90
1123;DHT22;548;48.778;9.252;2022-09-14T15:54:53;20.80;99.90
1123;DHT22;548;48.778;9.252;2022-09-14T15:57:20;21.00;99.90
1123;DHT22;548;48.778;9.252;2022-09-14T16:02:15;20.90;99.90
1123;DHT22;548;48.778;9.252;2022-09-14T16:04:44;21.00;99.90
1123;DHT22;548;48.778;9.252;2022-09-14T16:07:11;21.20;99.90
1123;DHT22;548;48.778;9.252;2022-09-14T16:09:39;21.60;99.90
1123;DHT22;548;48.778;9.252;2022-09-14T16:12:06;21.40;99.90
1123;DHT22;548;48.778;9.252;2022-09-14T16:14:33;21.30;99.90
1123;DHT22;548;48.778;9.252;2022-09-14T16:17:00;21.60;99.90
1123;DHT22;548;48.778;9.252;2022-09-14T16:19:28;21.20;99.90
1123;DHT22;548;48.778;9.252;2022-09-14T16:21:55;21.10;99.90
1123;DHT22;548;48.778;9.252;2022-09-14T16:24:23;21.00;99.90
1123;DHT22;548;48.778;9.252;2022-09-14T16:26:50;21.10;99.90
1123;DHT22;548;48.778;9.252;2022-09-14T16:29:19;21.00;99.90
1123;DHT22;548;48.778;9.252;2022-09-14T16:31:47;21.30;99.90
1123;DHT22;548;48.778;9.252;2022-09-14T16:34:16;21.00;99.90
1123;DHT22;548;48.778;9.252;2022-09-14T16:36:46;21.00;99.90
1123;DHT22;548;48.778;9.252;2022-09-14T16:39:16;21.10;99.90
1123;DHT22;548;48.778;9.252;2022-09-14T16:41:43;21.20;99.90
1123;DHT22;548;48.778;9.252;2022-09-14T16:44:13;21.20;99.90
1123;DHT22;548;48.778;9.252;2022-09-14T16:46:40;21.20;99.90
1123;DHT22;548;48.778;9.252;2022-09-14T16:49:25;21.20;99.90
1123;DHT22;548;48.778;9.252;2022-09-14T16:51:54;21.10;99.90
1123;DHT22;548;48.778;9.252;2022-09-14T16:54:22;21.00;99.90
1123;DHT22;548;48.778;9.252;2022-09-14T16:56:49;21.20;99.90
1123;DHT22;548;48.778;9.252;2022-09-14T16:59:16;21.60;99.90
1123;DHT22;548;48.778;9.252;2022-09-14T17:01:45;21.00;99.90
1123;DHT22;548;48.778;9.252;2022-09-14T17:04:14;21.20;99.90
1123;DHT22;548;48.778;9.252;2022-09-14T17:06:42;21.00;99.90
1123;DHT22;548;48.778;9.252;2022-09-14T17:09:13;21.10;99.90
1123;DHT22;548;48.778;9.252;2022-09-14T17:11:40;21.10;99.90
1123;DHT22;548;48.778;9.252;2022-09-14T17:14:11;20.90;99.90
1123;DHT22;548;48.778;9.252;2022-09-14T17:16:38;20.60;99.90
1123;DHT22;548;48.778;9.252;2022-09-14T17:19:05;20.80;99.90
1123;DHT22;548;48.778;9.252;2022-09-14T17:21:33;20.80;99.90
1123;DHT22;548;48.778;9.252;2022-09-14T17:24:04;20.20;99.90
1123;DHT22;548;48.778;9.252;2022-09-14T17:26:33;20.50;99.90
1123;DHT22;548;48.778;9.252;2022-09-14T17:29:06;20.80;99.90
1123;DHT22;548;48.778;9.252;2022-09-14T17:31:38;20.70;99.90
1123;DHT22;548;48.778;9.252;2022-09-14T17:34:06;20.60;99.90
1123;DHT22;548;48.778;9.252;2022-09-14T17:36:34;20.60;99.90
1123;DHT22;548;48.778;9.252;2022-09-14T17:39:01;20.50;99.90
1123;DHT22;548;48.778;9.252;2022-09-14T17:41:30;20.70;99.90
1123;DHT22;548;48.778;9.252;2022-09-14T17:44:00;20.50;99.90
1123;DHT22;548;48.778;9.252;2022-09-14T17:46:28;20.50;99.90
1123;DHT22;548;48.778;9.252;2022-09-14T17:48:56;20.40;99.90
1123;DHT22;548;48.778;9.252;2022-09-14T17:51:25;21.70;99.90
1123;DHT22;548;48.778;9.252;2022-09-14T17:53:53;20.30;99.90
1123;DHT22;548;48.778;9.252;2022-09-14T17:56:22;20.30;99.90
1123;DHT22;548;48.778;9.252;2022-09-14T17:58:57;20.60;99.90
1123;DHT22;548;48.778;9.252;2022-09-14T18:01:25;20.00;99.90
1123;DHT22;548;48.778;9.252;2022-09-14T18:03:54;20.20;99.90
1123;DHT22;548;48.778;9.252;2022-09-14T18:06:22;20.10;99.90
1123;DHT22;548;48.778;9.252;2022-09-14T18:08:53;20.30;99.90
1123;DHT22;548;48.778;9.252;2022-09-14T18:11:20;20.20;99.90
1123;DHT22;548;48.778;9.252;2022-09-14T18:13:50;20.20;99.90
1123;DHT22;548;48.778;9.252;2022-09-14T18:16:19;20.20;99.90
1123;DHT22;548;48.778;9.252;2022-09-14T18:18:47;20.30;99.90
1123;DHT22;548;48.778;9.252;2022-09-14T18:21:14;20.30;99.90
1123;DHT22;548;48.778;9.252;2022-09-14T18:23:43;20.30;99.90
1123;DHT22;548;48.778;9.252;2022-09-14T18:26:13;20.30;99.90
1123;DHT22;548;48.778;9.252;2022-09-14T18:28:39;20.30;99.90
1123;DHT22;548;48.778;9.252;2022-09-14T18:31:08;20.30;99.90
1123;DHT22;548;48.778;9.252;2022-09-14T18:36:05;20.50;99.90
1123;DHT22;548;48.778;9.252;2022-09-14T18:38:32;20.60;99.90
1123;DHT22;548;48.778;9.252;2022-09-14T18:41:02;20.80;99.90
1123;DHT22;548;48.778;9.252;2022-09-14T18:43:29;20.70;99.90
1123;DHT22;548;48.778;9.252;2022-09-14T18:45:56;21.00;99.90
1123;DHT22;548;48.778;9.252;2022-09-14T18:48:23;20.50;99.90
1123;DHT22;548;48.778;9.252;2022-09-14T18:50:50;20.50;99.90
1123;DHT22;548;48.778;9.252;2022-09-14T18:53:18;20.60;99.90
1123;DHT22;548;48.778;9.252;2022-09-14T18:55:44;20.50;99.90
1123;DHT22;548;48.778;9.252;2022-09-14T18:58:11;20.50;99.90
1123;DHT22;548;48.778;9.252;2022-09-14T19:00:41;20.40;99.90
1123;DHT22;548;48.778;9.252;2022-09-14T19:03:10;20.40;99.90
1123;DHT22;548;48.778;9.252;2022-09-14T19:05:38;20.40;99.90
1123;DHT22;548;48.778;9.252;2022-09-14T19:08:04;20.30;99.90
1123;DHT22;548;48.778;9.252;2022-09-14T19:10:35;20.30;99.90
1123;DHT22;548;48.778;9.252;2022-09-14T19:13:02;20.70;99.90
1123;DHT22;548;48.778;9.252;2022-09-14T19:15:28;20.40;99.90
1123;DHT22;548;48.778;9.252;2022-09-14T19:17:55;20.30;99.90
1123;DHT22;548;48.778;9.252;2022-09-14T19:20:22;20.80;99.90
1123;DHT22;548;48.778;9.252;2022-09-14T19:22:49;20.40;99.90
1123;DHT22;548;48.778;9.252;2022-09-14T19:25:16;20.30;99.90
1123;DHT22;548;48.778;9.252;2022-09-14T19:27:44;20.30;99.90
1123;DHT22;548;48.778;9.252;2022-09-14T19:30:14;20.60;99.90
1123;DHT22;548;48.778;9.252;2022-09-14T19:32:40;20.20;99.90
1123;DHT22;548;48.778;9.252;2022-09-14T19:35:08;20.30;99.90
1123;DHT22;548;48.778;9.252;2022-09-14T19:37:35;20.10;99.90
1123;DHT22;548;48.778;9.252;2022-09-14T19:40:01;20.40;99.90
1123;DHT22;548;48.778;9.252;2022-09-14T19:42:29;20.00;99.90
1123;DHT22;548;48.778;9.252;2022-09-14T19:44:57;20.20;99.90
1123;DHT22;548;48.778;9.252;2022-09-14T19:47:23;20.00;99.90
1123;DHT22;548;48.778;9.252;2022-09-14T19:49:50;19.90;99.90
1123;DHT22;548;48.778;9.252;2022-09-14T19:52:17;19.90;99.90
1123;DHT22;548;48.778;9.252;2022-09-14T19:54:43;19.80;99.90
1123;DHT22;548;48.778;9.252;2022-09-14T19:57:10;19.80;99.90
1123;DHT22;548;48.778;9.252;2022-09-14T19:59:37;19.80;99.90
1123;DHT22;548;48.778;9.252;2022-09-14T20:02:07;19.80;99.90
1123;DHT22;548;48.778;9.252;2022-09-14T20:04:34;19.80;99.90
1123;DHT22;548;48.778;9.252;2022-09-14T20:07:00;19.90;99.90
1123;DHT22;548;48.778;9.252;2022-09-14T20:09:27;19.30;99.90
1123;DHT22;548;48.778;9.252;2022-09-14T20:11:55;19.90;99.90
1123;DHT22;548;48.778;9.252;2022-09-14T20:14:22;20.00;99.90
1123;DHT22;548;48.778;9.252;2022-09-14T20:16:52;20.00;99.90
1123;DHT22;548;48.778;9.252;2022-09-14T20:19:23;19.80;99.90
1123;DHT22;548;48.778;9.252;2022-09-14T20:21:51;19.80;99.90
1123;DHT22;548;48.778;9.252;2022-09-14T20:24:20;19.80;99.90
1123;DHT22;548;48.778;9.252;2022-09-14T20:26:51;19.50;99.90
1123;DHT22;548;48.778;9.252;2022-09-14T20:29:19;19.60;99.90
1123;DHT22;548;48.778;9.252;2022-09-14T20:31:47;19.60;99.90
1123;DHT22;548;48.778;9.252;2022-09-14T20:34:15;19.40;99.90
1123;DHT22;548;48.778;9.252;2022-09-14T20:36:45;19.40;99.90
1123;DHT22;548;48.778;9.252;2022-09-14T20:39:12;19.40;99.90
1123;DHT22;548;48.778;9.252;2022-09-14T20:41:42;19.40;99.90
1123;DHT22;548;48.778;9.252;2022-09-14T20:44:09;19.50;99.90
1123;DHT22;548;48.778;9.252;2022-09-14T20:46:38;19.60;99.90
1123;DHT22;548;48.778;9.252;2022-09-14T20:49:06;19.60;99.90
1123;DHT22;548;48.778;9.252;2022-09-14T20:51:34;19.50;99.90
1123;DHT22;548;48.778;9.252;2022-09-14T20:54:03;19.50;99.90
1123;DHT22;548;48.778;9.252;2022-09-14T20:56:32;19.40;99.90
1123;DHT22;548;48.778;9.252;2022-09-14T20:59:00;19.50;99.90
1123;DHT22;548;48.778;9.252;2022-09-14T21:01:29;19.40;99.90
1123;DHT22;548;48.778;9.252;2022-09-14T21:04:00;19.70;99.90
1123;DHT22;548;48.778;9.252;2022-09-14T21:06:27;19.70;99.90
1123;DHT22;548;48.778;9.252;2022-09-14T21:08:54;19.80;99.90
1123;DHT22;548;48.778;9.252;2022-09-14T21:11:23;20.00;99.90
1123;DHT22;548;48.778;9.252;2022-09-14T21:13:52;20.00;99.90
1123;DHT22;548;48.778;9.252;2022-09-14T21:16:23;19.90;99.90
1123;DHT22;548;48.778;9.252;2022-09-14T21:18:52;19.80;99.90
1123;DHT22;548;48.778;9.252;2022-09-14T21:21:19;19.90;99.90
1123;DHT22;548;48.778;9.252;2022-09-14T21:23:46;19.80;99.90
1123;DHT22;548;48.778;9.252;2022-09-14T21:26:15;19.80;99.90
1123;DHT22;548;48.778;9.252;2022-09-14T21:28:43;19.90;99.90
1123;DHT22;548;48.778;9.252;2022-09-14T21:31:11;20.20;99.90
1123;DHT22;548;48.778;9.252;2022-09-14T21:33:40;19.90;99.90
1123;DHT22;548;48.778;9.252;2022-09-14T21:36:09;19.90;99.90
1123;DHT22;548;48.778;9.252;2022-09-14T21:38:36;20.00;99.90
1123;DHT22;548;48.778;9.252;2022-09-14T21:41:05;20.00;99.90
1123;DHT22;548;48.778;9.252;2022-09-14T21:43:34;20.00;99.90
1123;DHT22;548;48.778;9.252;2022-09-14T21:46:02;20.20;99.90
1123;DHT22;548;48.778;9.252;2022-09-14T21:48:29;20.20;99.90
1123;DHT22;548;48.778;9.252;2022-09-14T21:51:03;20.20;99.90
1123;DHT22;548;48.778;9.252;2022-09-14T21:53:30;20.30;99.90
1123;DHT22;548;48.778;9.252;2022-09-14T21:55:57;20.80;99.90
1123;DHT22;548;48.778;9.252;2022-09-14T21:58:24;20.40;99.90
1123;DHT22;548;48.778;9.252;2022-09-14T22:00:55;20.20;99.90